• Join FlightAware (Why Join?)
  • Login
  • US Flag 
11:10PM EDT


 

Airport Tracker/Info


-or-


 

Live Flight TrackerFlight Track Log ✈ ACA7034 ✈ 03-Jan-2014 ✈ KIAD - KFRG

Flight Track Log - Related Links

Times and Time Zones

All times are in EST time to prevent confusion due to time zone crossing. See the ACA7034 flight status page for this flight to view local times or setup timezone preferences in your user account.

Time Position Orientation Groundspeed Altitude Reporting Facility
EST Latitude Longitude Course Direction KTS MPH feet Rate Location/Type
02:16PM 38.9667 -77.5000 345° North 160 184 2,600  Level Potomac TRACON
02:17PM 39.0167 -77.5167 345° North 205 236 6,100 3,120 Climbing Potomac TRACON
02:18PM 39.0833 -77.5000 11° North 250 288 8,900 1,500 Climbing Potomac TRACON
02:19PM 39.1333 -77.4167 52° Northeast 276 318 9,100 540 Climbing Potomac TRACON
02:21PM 39.2317 -77.2261 56° Northeast 278 320 10,800 1,200 Climbing Washington Center
02:22PM 39.2828 -77.1333 55° Northeast 294 338 13,300 2,100 Climbing Washington Center
02:23PM 39.3300 -77.0269 60° Northeast 320 368 15,000 840 Climbing Washington Center
02:24PM 39.2942 -76.8817 108° East 354 407 15,000 -60 Level Washington Center
02:25PM 39.2436 -76.7278 113° Southeast 397 457 14,900  Descending Washington Center
02:26PM 39.2011 -76.5639 108° East 457 526 15,000 60 Climbing Washington Center
02:27PM 39.2211 -76.4033 81° East 439 505 15,100 540 Climbing Washington Center
02:28PM 39.2408 -76.2400 81° East 444 511 16,100 840 Climbing Washington Center
02:29PM 39.2667 -76.0875 78° East 462 532 16,900 420 Climbing Washington Center
02:30PM 39.2881 -75.9214 81° East 467 537 17,000  Climbing Washington Center
02:31PM 39.3092 -75.7525 81° East 467 537 17,000  Level Washington Center
02:32PM 39.3303 -75.5997 80° East 472 543 17,000  Level Washington Center
02:33PM 39.3550 -75.3983 81° East 472 543 17,000  Level Washington Center
02:34PM 39.3733 -75.2344 82° East 467 537 17,000  Level Washington Center
02:35PM 39.3956 -75.0625 80° East 467 537 17,000 -60 Level Washington Center
02:37PM 39.4350 -74.7678 80° East 469 540 16,900 -60 Descending New York Center
02:38PM 39.4525 -74.6156 81° East 452 520 16,900  Level New York Center
02:39PM 39.5025 -74.4919 62° Northeast 395 455 16,900  Level New York Center
02:40PM 39.5708 -74.3689 54° Northeast 380 437 16,900  Level New York Center
02:41PM 39.6464 -74.2839 41° Northeast 369 425 16,900 -300 Level New York Center
02:42PM 39.7200 -74.1983 42° Northeast 353 406 16,400 -720 Descending New York Center
02:43PM 39.7867 -74.1233 41° Northeast 348 400 15,500 -960 Descending New York Center
02:44PM 39.8600 -74.0403 41° Northeast 323 372 14,500 -1,380 Descending New York Center
02:45PM 39.9222 -73.9756 39° Northeast 302 348 12,800 -1,740 Descending New York Center
02:46PM 39.9825 -73.9053 42° Northeast 290 334 11,100 -960 Descending New York Center
02:47PM 40.0342 -73.8397 44° Northeast 285 328 10,900 -960 Descending New York Center
02:48PM 40.0947 -73.7583 46° Northeast 285 328 9,200 -1,800 Descending New York Center
02:49PM 40.1278 -73.6811 61° Northeast 274 315 7,300 -2,280 Descending New York Center
02:50PM 40.1594 -73.5847 67° East 268 308 4,700 -2,100 Descending New York Center
02:51PM 40.2083 -73.5458 31° Northeast 229 264 3,200 -900 Descending New York Center
02:52PM 40.2678 -73.4911 35° Northeast 229 264 3,000 -600 Descending New York Center
02:53PM 40.3108 -73.4356 45° Northeast 229 264 2,100 -540 Descending New York Center
02:54PM 40.3703 -73.3836 34° Northeast 234 269 2,000 -60 Descending New York Center
02:55PM 40.4247 -73.3692 11° North 219 252 2,000  Level New York Center
02:56PM 40.4853 -73.3689 360° North 203 234 2,000  Level New York Center
02:57PM 40.5311 -73.3678 North 195 224 2,000 -60 Level New York Center
02:58PM 40.5875 -73.3644 North 189 217 1,900 -300 Descending New York Center
02:59PM 40.6294 -73.3497 15° North 177 204 1,400 -300 Descending New York Center
03:00PM 40.6772 -73.3489 North 161 185 1,400 -420 Level New York Center
03:01PM 40.7000 -73.3833 311° West 106 122 600 -720 Descending New York TRACON
03:03PM 40.7167 -73.4000 355° North  Level FlightAware Approximate
03:10PM 40.7288 -73.4134 355° North  Level Estimated
03:11PM 40.7288 -73.4134 355° North  Level Estimated